sensor_id;sensor_type;location;lat;lon;timestamp;P1;durP1;ratioP1;P2;durP2;ratioP2
13866;SDS011;7003;46.982;15.248;2024-01-06T00:00:11;2.47;;;2.00;;
13866;SDS011;7003;46.982;15.248;2024-01-06T00:02:40;4.63;;;3.43;;
13866;SDS011;7003;46.982;15.248;2024-01-06T00:05:09;4.57;;;1.80;;
13866;SDS011;7003;46.982;15.248;2024-01-06T00:07:36;4.87;;;2.60;;
13866;SDS011;7003;46.982;15.248;2024-01-06T00:10:04;6.63;;;3.20;;
13866;SDS011;7003;46.982;15.248;2024-01-06T00:12:33;2.70;;;2.30;;
13866;SDS011;7003;46.982;15.248;2024-01-06T00:15:00;3.20;;;2.70;;
13866;SDS011;7003;46.982;15.248;2024-01-06T00:17:27;4.07;;;3.03;;
13866;SDS011;7003;46.982;15.248;2024-01-06T00:19:55;4.57;;;3.43;;
13866;SDS011;7003;46.982;15.248;2024-01-06T00:22:22;8.43;;;2.63;;
13866;SDS011;7003;46.982;15.248;2024-01-06T00:24:52;4.40;;;2.50;;
13866;SDS011;7003;46.982;15.248;2024-01-06T00:27:21;5.27;;;4.03;;
13866;SDS011;7003;46.982;15.248;2024-01-06T00:29:50;3.53;;;2.93;;
13866;SDS011;7003;46.982;15.248;2024-01-06T00:32:19;3.03;;;2.33;;
13866;SDS011;7003;46.982;15.248;2024-01-06T00:34:46;5.27;;;2.47;;
13866;SDS011;7003;46.982;15.248;2024-01-06T00:37:13;2.50;;;1.90;;
13866;SDS011;7003;46.982;15.248;2024-01-06T00:39:43;2.83;;;2.60;;
13866;SDS011;7003;46.982;15.248;2024-01-06T00:42:10;4.03;;;3.63;;
13866;SDS011;7003;46.982;15.248;2024-01-06T00:44:39;6.90;;;3.23;;
13866;SDS011;7003;46.982;15.248;2024-01-06T00:47:11;5.30;;;3.30;;
13866;SDS011;7003;46.982;15.248;2024-01-06T00:49:38;2.83;;;2.60;;
13866;SDS011;7003;46.982;15.248;2024-01-06T00:52:05;3.00;;;2.20;;
13866;SDS011;7003;46.982;15.248;2024-01-06T00:54:35;7.73;;;2.97;;
13866;SDS011;7003;46.982;15.248;2024-01-06T00:57:02;5.07;;;2.60;;
13866;SDS011;7003;46.982;15.248;2024-01-06T00:59:31;3.33;;;2.47;;
13866;SDS011;7003;46.982;15.248;2024-01-06T01:01:59;4.43;;;3.17;;
13866;SDS011;7003;46.982;15.248;2024-01-06T01:04:28;4.83;;;2.60;;
13866;SDS011;7003;46.982;15.248;2024-01-06T01:06:55;3.07;;;2.83;;
13866;SDS011;7003;46.982;15.248;2024-01-06T01:09:24;5.93;;;1.90;;
13866;SDS011;7003;46.982;15.248;2024-01-06T01:11:52;3.07;;;1.73;;
13866;SDS011;7003;46.982;15.248;2024-01-06T01:14:21;3.20;;;2.50;;
13866;SDS011;7003;46.982;15.248;2024-01-06T01:16:51;3.77;;;2.37;;
13866;SDS011;7003;46.982;15.248;2024-01-06T01:19:18;3.10;;;2.80;;
13866;SDS011;7003;46.982;15.248;2024-01-06T01:21:47;3.87;;;3.13;;
13866;SDS011;7003;46.982;15.248;2024-01-06T01:24:14;4.23;;;2.80;;
13866;SDS011;7003;46.982;15.248;2024-01-06T01:26:42;2.47;;;1.80;;
13866;SDS011;7003;46.982;15.248;2024-01-06T01:29:09;2.10;;;1.90;;
13866;SDS011;7003;46.982;15.248;2024-01-06T01:31:37;3.47;;;2.03;;
13866;SDS011;7003;46.982;15.248;2024-01-06T01:34:07;3.13;;;2.80;;
13866;SDS011;7003;46.982;15.248;2024-01-06T01:36:37;3.27;;;2.47;;
13866;SDS011;7003;46.982;15.248;2024-01-06T01:39:05;3.37;;;3.10;;
13866;SDS011;7003;46.982;15.248;2024-01-06T01:41:32;3.87;;;2.83;;
13866;SDS011;7003;46.982;15.248;2024-01-06T01:44:02;3.93;;;2.50;;
13866;SDS011;7003;46.982;15.248;2024-01-06T01:46:31;2.40;;;1.77;;
13866;SDS011;7003;46.982;15.248;2024-01-06T01:49:01;7.17;;;2.43;;
13866;SDS011;7003;46.982;15.248;2024-01-06T01:51:32;3.33;;;2.10;;
13866;SDS011;7003;46.982;15.248;2024-01-06T01:54:01;4.53;;;2.10;;
13866;SDS011;7003;46.982;15.248;2024-01-06T01:56:31;3.30;;;2.47;;
13866;SDS011;7003;46.982;15.248;2024-01-06T01:59:00;4.23;;;3.23;;
13866;SDS011;7003;46.982;15.248;2024-01-06T02:01:30;4.07;;;2.33;;
13866;SDS011;7003;46.982;15.248;2024-01-06T02:03:58;3.47;;;2.43;;
13866;SDS011;7003;46.982;15.248;2024-01-06T02:06:27;1.87;;;1.73;;
13866;SDS011;7003;46.982;15.248;2024-01-06T02:08:57;3.47;;;2.87;;
13866;SDS011;7003;46.982;15.248;2024-01-06T02:11:24;2.53;;;2.10;;
13866;SDS011;7003;46.982;15.248;2024-01-06T02:13:55;3.17;;;2.70;;
13866;SDS011;7003;46.982;15.248;2024-01-06T02:16:22;3.60;;;2.70;;
13866;SDS011;7003;46.982;15.248;2024-01-06T02:18:49;2.13;;;1.93;;
13866;SDS011;7003;46.982;15.248;2024-01-06T02:21:18;9.17;;;2.70;;
13866;SDS011;7003;46.982;15.248;2024-01-06T02:23:50;4.30;;;2.07;;
13866;SDS011;7003;46.982;15.248;2024-01-06T02:26:19;3.03;;;2.43;;
13866;SDS011;7003;46.982;15.248;2024-01-06T02:28:48;3.43;;;3.07;;
13866;SDS011;7003;46.982;15.248;2024-01-06T02:31:16;6.47;;;3.10;;
13866;SDS011;7003;46.982;15.248;2024-01-06T02:33:45;2.70;;;2.10;;
13866;SDS011;7003;46.982;15.248;2024-01-06T02:36:15;4.30;;;2.37;;
13866;SDS011;7003;46.982;15.248;2024-01-06T02:38:41;3.87;;;1.90;;
13866;SDS011;7003;46.982;15.248;2024-01-06T02:41:10;2.40;;;1.93;;
13866;SDS011;7003;46.982;15.248;2024-01-06T02:43:37;4.03;;;3.00;;
13866;SDS011;7003;46.982;15.248;2024-01-06T02:46:04;4.83;;;2.77;;
13866;SDS011;7003;46.982;15.248;2024-01-06T02:48:31;6.43;;;3.30;;
13866;SDS011;7003;46.982;15.248;2024-01-06T02:50:58;5.93;;;4.07;;
13866;SDS011;7003;46.982;15.248;2024-01-06T02:53:27;9.30;;;2.53;;
13866;SDS011;7003;46.982;15.248;2024-01-06T02:55:54;5.50;;;2.63;;
13866;SDS011;7003;46.982;15.248;2024-01-06T02:58:26;4.17;;;2.83;;
13866;SDS011;7003;46.982;15.248;2024-01-06T03:00:55;4.20;;;2.20;;
13866;SDS011;7003;46.982;15.248;2024-01-06T03:03:24;5.97;;;2.93;;
13866;SDS011;7003;46.982;15.248;2024-01-06T03:05:51;2.47;;;2.13;;
13866;SDS011;7003;46.982;15.248;2024-01-06T03:08:20;4.00;;;2.90;;
13866;SDS011;7003;46.982;15.248;2024-01-06T03:10:49;5.17;;;3.20;;
13866;SDS011;7003;46.982;15.248;2024-01-06T03:13:20;4.93;;;3.10;;
13866;SDS011;7003;46.982;15.248;2024-01-06T03:15:52;5.33;;;2.50;;
13866;SDS011;7003;46.982;15.248;2024-01-06T03:18:19;6.10;;;4.67;;
13866;SDS011;7003;46.982;15.248;2024-01-06T03:20:46;3.57;;;2.83;;
13866;SDS011;7003;46.982;15.248;2024-01-06T03:23:15;4.73;;;2.63;;
13866;SDS011;7003;46.982;15.248;2024-01-06T03:25:43;6.90;;;3.83;;
13866;SDS011;7003;46.982;15.248;2024-01-06T03:28:11;4.87;;;3.77;;
13866;SDS011;7003;46.982;15.248;2024-01-06T03:30:38;12.77;;;5.83;;
13866;SDS011;7003;46.982;15.248;2024-01-06T03:33:06;6.00;;;4.37;;
13866;SDS011;7003;46.982;15.248;2024-01-06T03:35:38;4.43;;;2.80;;
13866;SDS011;7003;46.982;15.248;2024-01-06T03:38:05;5.93;;;2.77;;
13866;SDS011;7003;46.982;15.248;2024-01-06T03:40:35;4.80;;;2.70;;
13866;SDS011;7003;46.982;15.248;2024-01-06T03:43:04;9.07;;;4.00;;
13866;SDS011;7003;46.982;15.248;2024-01-06T03:45:31;10.83;;;3.67;;
13866;SDS011;7003;46.982;15.248;2024-01-06T03:47:59;2.13;;;1.93;;
13866;SDS011;7003;46.982;15.248;2024-01-06T03:50:27;3.13;;;2.47;;
13866;SDS011;7003;46.982;15.248;2024-01-06T03:52:57;7.37;;;2.37;;
13866;SDS011;7003;46.982;15.248;2024-01-06T03:55:27;4.33;;;3.80;;
13866;SDS011;7003;46.982;15.248;2024-01-06T03:57:54;5.20;;;3.23;;
13866;SDS011;7003;46.982;15.248;2024-01-06T04:00:24;4.73;;;3.70;;
13866;SDS011;7003;46.982;15.248;2024-01-06T04:02:52;2.43;;;1.97;;
13866;SDS011;7003;46.982;15.248;2024-01-06T04:05:21;8.47;;;3.63;;
13866;SDS011;7003;46.982;15.248;2024-01-06T04:07:50;2.10;;;1.87;;
13866;SDS011;7003;46.982;15.248;2024-01-06T04:10:19;3.97;;;2.37;;
13866;SDS011;7003;46.982;15.248;2024-01-06T04:12:48;7.57;;;2.87;;
13866;SDS011;7003;46.982;15.248;2024-01-06T04:15:15;2.97;;;2.57;;
13866;SDS011;7003;46.982;15.248;2024-01-06T04:17:42;5.33;;;2.73;;
13866;SDS011;7003;46.982;15.248;2024-01-06T04:20:10;6.07;;;3.10;;
13866;SDS011;7003;46.982;15.248;2024-01-06T04:22:38;4.40;;;3.43;;
13866;SDS011;7003;46.982;15.248;2024-01-06T04:25:07;2.73;;;1.67;;
13866;SDS011;7003;46.982;15.248;2024-01-06T04:27:36;3.77;;;3.07;;
13866;SDS011;7003;46.982;15.248;2024-01-06T04:30:04;4.63;;;2.83;;
13866;SDS011;7003;46.982;15.248;2024-01-06T04:32:32;3.40;;;2.60;;
13866;SDS011;7003;46.982;15.248;2024-01-06T04:34:59;3.73;;;2.13;;
13866;SDS011;7003;46.982;15.248;2024-01-06T04:37:28;3.10;;;2.70;;
13866;SDS011;7003;46.982;15.248;2024-01-06T04:39:58;2.93;;;2.63;;
13866;SDS011;7003;46.982;15.248;2024-01-06T04:42:29;2.73;;;2.07;;
13866;SDS011;7003;46.982;15.248;2024-01-06T04:44:56;3.53;;;2.40;;
13866;SDS011;7003;46.982;15.248;2024-01-06T04:47:26;3.33;;;3.03;;
13866;SDS011;7003;46.982;15.248;2024-01-06T04:49:58;2.83;;;2.57;;
13866;SDS011;7003;46.982;15.248;2024-01-06T04:52:25;4.00;;;2.93;;
13866;SDS011;7003;46.982;15.248;2024-01-06T04:54:54;3.07;;;2.50;;
13866;SDS011;7003;46.982;15.248;2024-01-06T04:57:24;3.60;;;2.83;;
13866;SDS011;7003;46.982;15.248;2024-01-06T04:59:54;2.47;;;2.10;;
13866;SDS011;7003;46.982;15.248;2024-01-06T05:02:23;7.77;;;3.57;;
13866;SDS011;7003;46.982;15.248;2024-01-06T05:04:53;1.83;;;1.67;;
13866;SDS011;7003;46.982;15.248;2024-01-06T05:07:20;4.20;;;2.47;;
13866;SDS011;7003;46.982;15.248;2024-01-06T05:09:47;4.13;;;1.93;;
13866;SDS011;7003;46.982;15.248;2024-01-06T05:12:14;1.87;;;1.37;;
13866;SDS011;7003;46.982;15.248;2024-01-06T05:14:43;3.50;;;2.43;;
13866;SDS011;7003;46.982;15.248;2024-01-06T05:17:11;2.57;;;2.37;;
13866;SDS011;7003;46.982;15.248;2024-01-06T05:19:41;2.30;;;1.60;;
13866;SDS011;7003;46.982;15.248;2024-01-06T05:22:10;6.73;;;2.47;;
13866;SDS011;7003;46.982;15.248;2024-01-06T05:24:37;3.40;;;3.03;;
13866;SDS011;7003;46.982;15.248;2024-01-06T05:27:04;3.03;;;1.87;;
13866;SDS011;7003;46.982;15.248;2024-01-06T05:29:32;6.07;;;2.27;;
13866;SDS011;7003;46.982;15.248;2024-01-06T05:31:59;2.57;;;2.37;;
13866;SDS011;7003;46.982;15.248;2024-01-06T05:34:28;3.17;;;2.23;;
13866;SDS011;7003;46.982;15.248;2024-01-06T05:36:57;8.53;;;3.87;;
13866;SDS011;7003;46.982;15.248;2024-01-06T05:39:24;3.40;;;3.10;;
13866;SDS011;7003;46.982;15.248;2024-01-06T05:41:51;2.80;;;2.47;;
13866;SDS011;7003;46.982;15.248;2024-01-06T05:44:20;6.40;;;2.90;;
13866;SDS011;7003;46.982;15.248;2024-01-06T05:46:47;3.43;;;3.10;;
13866;SDS011;7003;46.982;15.248;2024-01-06T05:49:16;4.03;;;3.17;;
13866;SDS011;7003;46.982;15.248;2024-01-06T05:51:45;3.53;;;2.87;;
13866;SDS011;7003;46.982;15.248;2024-01-06T05:54:12;4.63;;;3.60;;
13866;SDS011;7003;46.982;15.248;2024-01-06T05:56:41;4.00;;;2.40;;
13866;SDS011;7003;46.982;15.248;2024-01-06T05:59:11;4.50;;;2.97;;
13866;SDS011;7003;46.982;15.248;2024-01-06T06:01:38;5.43;;;2.80;;
13866;SDS011;7003;46.982;15.248;2024-01-06T06:04:05;4.03;;;3.27;;
13866;SDS011;7003;46.982;15.248;2024-01-06T06:06:34;5.20;;;3.20;;
13866;SDS011;7003;46.982;15.248;2024-01-06T06:09:02;8.47;;;2.53;;
13866;SDS011;7003;46.982;15.248;2024-01-06T06:11:35;4.57;;;3.07;;
13866;SDS011;7003;46.982;15.248;2024-01-06T06:14:02;6.10;;;3.30;;
13866;SDS011;7003;46.982;15.248;2024-01-06T06:16:30;2.70;;;2.47;;
13866;SDS011;7003;46.982;15.248;2024-01-06T06:18:59;3.17;;;2.57;;
13866;SDS011;7003;46.982;15.248;2024-01-06T06:21:26;9.00;;;3.40;;
13866;SDS011;7003;46.982;15.248;2024-01-06T06:23:54;4.13;;;3.73;;
13866;SDS011;7003;46.982;15.248;2024-01-06T06:26:23;4.93;;;2.87;;
13866;SDS011;7003;46.982;15.248;2024-01-06T06:28:50;2.37;;;2.00;;
13866;SDS011;7003;46.982;15.248;2024-01-06T06:31:17;3.60;;;2.77;;
13866;SDS011;7003;46.982;15.248;2024-01-06T06:33:47;4.67;;;2.87;;
13866;SDS011;7003;46.982;15.248;2024-01-06T06:36:14;6.43;;;2.63;;
13866;SDS011;7003;46.982;15.248;2024-01-06T06:38:44;6.17;;;3.13;;
13866;SDS011;7003;46.982;15.248;2024-01-06T06:41:12;4.07;;;3.10;;
13866;SDS011;7003;46.982;15.248;2024-01-06T06:43:41;2.40;;;2.20;;
13866;SDS011;7003;46.982;15.248;2024-01-06T06:46:08;6.47;;;3.83;;
13866;SDS011;7003;46.982;15.248;2024-01-06T06:48:36;3.47;;;2.70;;
13866;SDS011;7003;46.982;15.248;2024-01-06T06:51:06;5.17;;;3.20;;
13866;SDS011;7003;46.982;15.248;2024-01-06T06:53:33;7.23;;;4.10;;
13866;SDS011;7003;46.982;15.248;2024-01-06T06:56:01;13.43;;;2.73;;
13866;SDS011;7003;46.982;15.248;2024-01-06T06:58:31;20.50;;;12.47;;
13866;SDS011;7003;46.982;15.248;2024-01-06T07:01:02;6.07;;;3.90;;
13866;SDS011;7003;46.982;15.248;2024-01-06T07:03:31;4.40;;;2.40;;
13866;SDS011;7003;46.982;15.248;2024-01-06T07:05:58;2.93;;;2.60;;
13866;SDS011;7003;46.982;15.248;2024-01-06T07:08:26;3.70;;;2.77;;
13866;SDS011;7003;46.982;15.248;2024-01-06T07:10:56;7.47;;;3.13;;
13866;SDS011;7003;46.982;15.248;2024-01-06T07:13:24;5.47;;;4.63;;
13866;SDS011;7003;46.982;15.248;2024-01-06T07:15:52;6.30;;;4.13;;
13866;SDS011;7003;46.982;15.248;2024-01-06T07:18:23;7.07;;;3.70;;
13866;SDS011;7003;46.982;15.248;2024-01-06T07:20:55;3.47;;;3.17;;
13866;SDS011;7003;46.982;15.248;2024-01-06T07:23:23;5.30;;;4.47;;
13866;SDS011;7003;46.982;15.248;2024-01-06T07:25:50;8.97;;;6.67;;
13866;SDS011;7003;46.982;15.248;2024-01-06T07:28:18;7.07;;;4.83;;
13866;SDS011;7003;46.982;15.248;2024-01-06T07:30:46;4.50;;;3.73;;
13866;SDS011;7003;46.982;15.248;2024-01-06T07:33:16;16.73;;;4.90;;
13866;SDS011;7003;46.982;15.248;2024-01-06T07:35:47;5.50;;;3.93;;
13866;SDS011;7003;46.982;15.248;2024-01-06T07:38:14;8.93;;;4.83;;
13866;SDS011;7003;46.982;15.248;2024-01-06T07:40:42;7.73;;;4.67;;
13866;SDS011;7003;46.982;15.248;2024-01-06T07:43:10;6.57;;;5.03;;
13866;SDS011;7003;46.982;15.248;2024-01-06T07:45:37;9.00;;;5.23;;
13866;SDS011;7003;46.982;15.248;2024-01-06T07:48:05;8.73;;;4.87;;
13866;SDS011;7003;46.982;15.248;2024-01-06T07:50:33;6.87;;;4.07;;
13866;SDS011;7003;46.982;15.248;2024-01-06T07:53:02;5.00;;;2.93;;
13866;SDS011;7003;46.982;15.248;2024-01-06T07:55:34;7.63;;;4.77;;
13866;SDS011;7003;46.982;15.248;2024-01-06T07:58:04;4.10;;;3.70;;
13866;SDS011;7003;46.982;15.248;2024-01-06T08:00:32;5.53;;;4.47;;
13866;SDS011;7003;46.982;15.248;2024-01-06T08:03:03;6.13;;;4.40;;
13866;SDS011;7003;46.982;15.248;2024-01-06T08:05:34;6.97;;;4.73;;
13866;SDS011;7003;46.982;15.248;2024-01-06T08:08:08;5.00;;;4.23;;
13866;SDS011;7003;46.982;15.248;2024-01-06T08:10:41;4.60;;;4.20;;
13866;SDS011;7003;46.982;15.248;2024-01-06T08:13:13;4.50;;;3.50;;
13866;SDS011;7003;46.982;15.248;2024-01-06T08:15:43;7.27;;;4.20;;
13866;SDS011;7003;46.982;15.248;2024-01-06T08:18:14;6.37;;;4.13;;
13866;SDS011;7003;46.982;15.248;2024-01-06T08:20:48;4.17;;;3.80;;
13866;SDS011;7003;46.982;15.248;2024-01-06T08:23:21;7.23;;;4.23;;
13866;SDS011;7003;46.982;15.248;2024-01-06T08:25:53;4.13;;;3.73;;
13866;SDS011;7003;46.982;15.248;2024-01-06T08:28:25;5.77;;;4.33;;
13866;SDS011;7003;46.982;15.248;2024-01-06T08:30:56;3.80;;;3.47;;
13866;SDS011;7003;46.982;15.248;2024-01-06T08:33:26;4.17;;;3.30;;
13866;SDS011;7003;46.982;15.248;2024-01-06T08:36:01;4.37;;;3.70;;
13866;SDS011;7003;46.982;15.248;2024-01-06T08:38:34;7.33;;;4.90;;
13866;SDS011;7003;46.982;15.248;2024-01-06T08:41:05;6.47;;;5.07;;
13866;SDS011;7003;46.982;15.248;2024-01-06T08:43:36;3.90;;;3.57;;
13866;SDS011;7003;46.982;15.248;2024-01-06T08:46:09;7.27;;;3.53;;
13866;SDS011;7003;46.982;15.248;2024-01-06T08:48:43;10.00;;;3.97;;
13866;SDS011;7003;46.982;15.248;2024-01-06T08:51:15;4.97;;;3.97;;
13866;SDS011;7003;46.982;15.248;2024-01-06T08:53:49;6.33;;;3.33;;
13866;SDS011;7003;46.982;15.248;2024-01-06T08:56:20;3.57;;;3.27;;
13866;SDS011;7003;46.982;15.248;2024-01-06T08:58:54;4.43;;;3.37;;
13866;SDS011;7003;46.982;15.248;2024-01-06T09:01:29;12.17;;;7.53;;
13866;SDS011;7003;46.982;15.248;2024-01-06T09:04:03;19.83;;;12.70;;
13866;SDS011;7003;46.982;15.248;2024-01-06T09:06:34;14.90;;;10.87;;
13866;SDS011;7003;46.982;15.248;2024-01-06T09:09:06;16.43;;;11.57;;
13866;SDS011;7003;46.982;15.248;2024-01-06T09:11:39;8.50;;;6.40;;
13866;SDS011;7003;46.982;15.248;2024-01-06T09:14:13;8.53;;;5.60;;
13866;SDS011;7003;46.982;15.248;2024-01-06T09:16:46;10.67;;;6.30;;
13866;SDS011;7003;46.982;15.248;2024-01-06T09:19:17;11.30;;;6.40;;
13866;SDS011;7003;46.982;15.248;2024-01-06T09:21:52;7.80;;;6.57;;
13866;SDS011;7003;46.982;15.248;2024-01-06T09:24:25;9.87;;;5.43;;
13866;SDS011;7003;46.982;15.248;2024-01-06T09:26:58;6.97;;;5.37;;
13866;SDS011;7003;46.982;15.248;2024-01-06T09:29:29;14.63;;;6.90;;
13866;SDS011;7003;46.982;15.248;2024-01-06T09:32:00;7.97;;;6.67;;
13866;SDS011;7003;46.982;15.248;2024-01-06T09:34:34;12.07;;;6.67;;
13866;SDS011;7003;46.982;15.248;2024-01-06T09:37:07;11.83;;;6.67;;
13866;SDS011;7003;46.982;15.248;2024-01-06T09:39:39;9.83;;;6.77;;
13866;SDS011;7003;46.982;15.248;2024-01-06T09:42:12;17.23;;;10.33;;
13866;SDS011;7003;46.982;15.248;2024-01-06T09:44:43;17.53;;;11.73;;
13866;SDS011;7003;46.982;15.248;2024-01-06T09:47:11;13.47;;;9.90;;
13866;SDS011;7003;46.982;15.248;2024-01-06T09:49:41;13.43;;;8.47;;
13866;SDS011;7003;46.982;15.248;2024-01-06T09:52:17;13.10;;;9.63;;
13866;SDS011;7003;46.982;15.248;2024-01-06T09:54:51;15.60;;;7.87;;
13866;SDS011;7003;46.982;15.248;2024-01-06T09:57:19;5.30;;;4.77;;
13866;SDS011;7003;46.982;15.248;2024-01-06T09:59:47;6.30;;;4.83;;
13866;SDS011;7003;46.982;15.248;2024-01-06T10:02:17;6.80;;;5.87;;
13866;SDS011;7003;46.982;15.248;2024-01-06T10:04:46;6.20;;;4.97;;
13866;SDS011;7003;46.982;15.248;2024-01-06T10:07:13;7.13;;;6.03;;
13866;SDS011;7003;46.982;15.248;2024-01-06T10:09:41;9.53;;;6.90;;
13866;SDS011;7003;46.982;15.248;2024-01-06T10:12:10;14.40;;;7.60;;
13866;SDS011;7003;46.982;15.248;2024-01-06T10:14:37;7.30;;;5.97;;
13866;SDS011;7003;46.982;15.248;2024-01-06T10:17:05;10.60;;;5.60;;
13866;SDS011;7003;46.982;15.248;2024-01-06T10:19:33;8.60;;;6.47;;
13866;SDS011;7003;46.982;15.248;2024-01-06T10:22:02;9.73;;;5.40;;
13866;SDS011;7003;46.982;15.248;2024-01-06T10:24:29;7.17;;;5.10;;
13866;SDS011;7003;46.982;15.248;2024-01-06T10:26:57;9.13;;;5.60;;
13866;SDS011;7003;46.982;15.248;2024-01-06T10:29:27;8.03;;;5.73;;
13866;SDS011;7003;46.982;15.248;2024-01-06T10:31:57;8.73;;;5.57;;
13866;SDS011;7003;46.982;15.248;2024-01-06T10:34:24;5.80;;;4.93;;
13866;SDS011;7003;46.982;15.248;2024-01-06T10:36:52;5.60;;;5.00;;
13866;SDS011;7003;46.982;15.248;2024-01-06T10:39:20;10.43;;;5.27;;
13866;SDS011;7003;46.982;15.248;2024-01-06T10:41:50;11.17;;;6.17;;
13866;SDS011;7003;46.982;15.248;2024-01-06T10:44:21;9.70;;;6.57;;
13866;SDS011;7003;46.982;15.248;2024-01-06T10:46:54;8.53;;;6.73;;
13866;SDS011;7003;46.982;15.248;2024-01-06T10:49:26;8.43;;;4.80;;
13866;SDS011;7003;46.982;15.248;2024-01-06T10:51:58;8.83;;;6.03;;
13866;SDS011;7003;46.982;15.248;2024-01-06T10:54:27;6.33;;;4.57;;
13866;SDS011;7003;46.982;15.248;2024-01-06T10:56:55;8.60;;;6.20;;
13866;SDS011;7003;46.982;15.248;2024-01-06T10:59:27;14.87;;;6.90;;
13866;SDS011;7003;46.982;15.248;2024-01-06T11:01:58;11.70;;;7.30;;
13866;SDS011;7003;46.982;15.248;2024-01-06T11:04:30;9.03;;;6.53;;
13866;SDS011;7003;46.982;15.248;2024-01-06T11:06:57;7.43;;;6.37;;
13866;SDS011;7003;46.982;15.248;2024-01-06T11:09:27;8.87;;;7.13;;
13866;SDS011;7003;46.982;15.248;2024-01-06T11:11:59;5.87;;;5.17;;
13866;SDS011;7003;46.982;15.248;2024-01-06T11:14:27;15.33;;;5.60;;
13866;SDS011;7003;46.982;15.248;2024-01-06T11:16:54;11.70;;;8.03;;
13866;SDS011;7003;46.982;15.248;2024-01-06T11:22:19;7.67;;;6.97;;
13866;SDS011;7003;46.982;15.248;2024-01-06T11:24:51;8.10;;;7.30;;
13866;SDS011;7003;46.982;15.248;2024-01-06T11:27:20;8.30;;;7.03;;
13866;SDS011;7003;46.982;15.248;2024-01-06T11:29:48;8.70;;;7.83;;
13866;SDS011;7003;46.982;15.248;2024-01-06T11:32:25;12.80;;;7.67;;
13866;SDS011;7003;46.982;15.248;2024-01-06T11:35:04;14.03;;;7.67;;
13866;SDS011;7003;46.982;15.248;2024-01-06T11:37:34;7.67;;;6.80;;
13866;SDS011;7003;46.982;15.248;2024-01-06T11:40:03;10.77;;;7.03;;
13866;SDS011;7003;46.982;15.248;2024-01-06T11:42:34;8.90;;;7.27;;
13866;SDS011;7003;46.982;15.248;2024-01-06T11:45:02;10.17;;;8.20;;
13866;SDS011;7003;46.982;15.248;2024-01-06T11:47:31;17.03;;;9.23;;
13866;SDS011;7003;46.982;15.248;2024-01-06T11:49:59;16.10;;;11.57;;
13866;SDS011;7003;46.982;15.248;2024-01-06T11:52:30;15.03;;;13.10;;
13866;SDS011;7003;46.982;15.248;2024-01-06T11:54:58;16.57;;;8.60;;
13866;SDS011;7003;46.982;15.248;2024-01-06T11:57:25;14.50;;;8.93;;
13866;SDS011;7003;46.982;15.248;2024-01-06T11:59:55;12.37;;;8.40;;
13866;SDS011;7003;46.982;15.248;2024-01-06T12:02:22;10.17;;;7.50;;
13866;SDS011;7003;46.982;15.248;2024-01-06T12:04:52;23.73;;;14.70;;
13866;SDS011;7003;46.982;15.248;2024-01-06T12:07:24;22.13;;;16.07;;
13866;SDS011;7003;46.982;15.248;2024-01-06T12:10:00;26.73;;;17.60;;
13866;SDS011;7003;46.982;15.248;2024-01-06T12:12:30;30.60;;;20.07;;
13866;SDS011;7003;46.982;15.248;2024-01-06T12:14:58;57.73;;;33.30;;
13866;SDS011;7003;46.982;15.248;2024-01-06T12:17:29;58.63;;;35.30;;
13866;SDS011;7003;46.982;15.248;2024-01-06T12:19:57;37.10;;;22.67;;
13866;SDS011;7003;46.982;15.248;2024-01-06T12:22:26;26.60;;;15.90;;
13866;SDS011;7003;46.982;15.248;2024-01-06T12:24:56;40.77;;;26.27;;
13866;SDS011;7003;46.982;15.248;2024-01-06T12:27:25;43.97;;;27.13;;
13866;SDS011;7003;46.982;15.248;2024-01-06T12:29:52;46.17;;;25.90;;
13866;SDS011;7003;46.982;15.248;2024-01-06T12:32:20;24.63;;;20.20;;
13866;SDS011;7003;46.982;15.248;2024-01-06T12:34:48;31.57;;;21.07;;
13866;SDS011;7003;46.982;15.248;2024-01-06T12:37:18;32.73;;;20.20;;
13866;SDS011;7003;46.982;15.248;2024-01-06T12:39:49;15.57;;;9.43;;
13866;SDS011;7003;46.982;15.248;2024-01-06T12:42:20;15.13;;;11.13;;
13866;SDS011;7003;46.982;15.248;2024-01-06T12:44:50;10.77;;;9.27;;
13866;SDS011;7003;46.982;15.248;2024-01-06T12:47:19;11.63;;;9.80;;
13866;SDS011;7003;46.982;15.248;2024-01-06T12:49:47;9.33;;;7.20;;
13866;SDS011;7003;46.982;15.248;2024-01-06T12:52:17;8.00;;;6.87;;
13866;SDS011;7003;46.982;15.248;2024-01-06T12:54:44;11.80;;;9.27;;
13866;SDS011;7003;46.982;15.248;2024-01-06T12:57:14;13.67;;;10.23;;
13866;SDS011;7003;46.982;15.248;2024-01-06T12:59:44;13.57;;;7.70;;
13866;SDS011;7003;46.982;15.248;2024-01-06T13:02:12;9.23;;;7.93;;
13866;SDS011;7003;46.982;15.248;2024-01-06T13:04:39;9.03;;;6.03;;
13866;SDS011;7003;46.982;15.248;2024-01-06T13:07:06;11.53;;;7.70;;
13866;SDS011;7003;46.982;15.248;2024-01-06T13:09:34;8.73;;;7.10;;
13866;SDS011;7003;46.982;15.248;2024-01-06T13:12:04;9.40;;;6.60;;
13866;SDS011;7003;46.982;15.248;2024-01-06T13:14:34;11.07;;;9.30;;
13866;SDS011;7003;46.982;15.248;2024-01-06T13:17:03;8.13;;;7.20;;
13866;SDS011;7003;46.982;15.248;2024-01-06T13:19:31;10.20;;;6.93;;
13866;SDS011;7003;46.982;15.248;2024-01-06T13:21:59;8.77;;;6.23;;
13866;SDS011;7003;46.982;15.248;2024-01-06T13:24:29;5.53;;;5.03;;
13866;SDS011;7003;46.982;15.248;2024-01-06T13:26:59;7.10;;;5.17;;
13866;SDS011;7003;46.982;15.248;2024-01-06T13:29:35;7.07;;;5.20;;
13866;SDS011;7003;46.982;15.248;2024-01-06T13:32:06;5.47;;;4.23;;
13866;SDS011;7003;46.982;15.248;2024-01-06T13:34:33;4.70;;;3.77;;
13866;SDS011;7003;46.982;15.248;2024-01-06T13:37:04;5.17;;;4.73;;
13866;SDS011;7003;46.982;15.248;2024-01-06T13:39:35;3.73;;;3.43;;
13866;SDS011;7003;46.982;15.248;2024-01-06T13:42:03;5.07;;;4.47;;
13866;SDS011;7003;46.982;15.248;2024-01-06T13:44:33;8.37;;;5.40;;
13866;SDS011;7003;46.982;15.248;2024-01-06T13:47:04;4.47;;;4.07;;
13866;SDS011;7003;46.982;15.248;2024-01-06T13:49:32;6.57;;;5.13;;
13866;SDS011;7003;46.982;15.248;2024-01-06T13:51:59;5.87;;;4.33;;
13866;SDS011;7003;46.982;15.248;2024-01-06T13:54:27;5.97;;;5.13;;
13866;SDS011;7003;46.982;15.248;2024-01-06T13:56:56;3.40;;;3.10;;
13866;SDS011;7003;46.982;15.248;2024-01-06T13:59:24;11.73;;;6.80;;
13866;SDS011;7003;46.982;15.248;2024-01-06T14:01:54;4.73;;;4.10;;
13866;SDS011;7003;46.982;15.248;2024-01-06T14:04:25;6.87;;;6.17;;
13866;SDS011;7003;46.982;15.248;2024-01-06T14:06:52;4.73;;;3.77;;
13866;SDS011;7003;46.982;15.248;2024-01-06T14:09:25;4.30;;;3.87;;
13866;SDS011;7003;46.982;15.248;2024-01-06T14:11:52;5.70;;;3.40;;
13866;SDS011;7003;46.982;15.248;2024-01-06T14:14:20;7.37;;;4.43;;
13866;SDS011;7003;46.982;15.248;2024-01-06T14:16:47;5.40;;;3.63;;
13866;SDS011;7003;46.982;15.248;2024-01-06T14:19:16;5.47;;;3.93;;
13866;SDS011;7003;46.982;15.248;2024-01-06T14:21:47;7.37;;;3.83;;
13866;SDS011;7003;46.982;15.248;2024-01-06T14:24:19;4.70;;;4.03;;
13866;SDS011;7003;46.982;15.248;2024-01-06T14:26:51;5.83;;;4.10;;
13866;SDS011;7003;46.982;15.248;2024-01-06T14:29:20;3.93;;;3.63;;
13866;SDS011;7003;46.982;15.248;2024-01-06T14:31:48;3.63;;;3.33;;
13866;SDS011;7003;46.982;15.248;2024-01-06T14:34:18;2.60;;;2.37;;
13866;SDS011;7003;46.982;15.248;2024-01-06T14:36:50;4.30;;;2.80;;
13866;SDS011;7003;46.982;15.248;2024-01-06T14:39:17;4.80;;;2.17;;
13866;SDS011;7003;46.982;15.248;2024-01-06T14:41:47;3.80;;;2.40;;
13866;SDS011;7003;46.982;15.248;2024-01-06T14:44:14;4.37;;;3.07;;
13866;SDS011;7003;46.982;15.248;2024-01-06T14:46:43;3.60;;;2.23;;
13866;SDS011;7003;46.982;15.248;2024-01-06T14:49:13;2.47;;;2.27;;
13866;SDS011;7003;46.982;15.248;2024-01-06T14:51:42;2.87;;;2.30;;
13866;SDS011;7003;46.982;15.248;2024-01-06T14:54:15;2.77;;;2.13;;
13866;SDS011;7003;46.982;15.248;2024-01-06T14:56:44;2.57;;;2.27;;
13866;SDS011;7003;46.982;15.248;2024-01-06T14:59:12;3.67;;;1.80;;